sensor_id;sensor_type;location;lat;lon;timestamp;pressure;altitude;pressure_sealevel;temperature;humidity
73558;BME280;61829;53.286;10.434;2023-04-15T00:02:17;100674.22;;;7.08;100.00
73558;BME280;61829;53.286;10.434;2023-04-15T00:04:47;100668.88;;;7.08;100.00
73558;BME280;61829;53.286;10.434;2023-04-15T00:07:13;100664.50;;;7.07;100.00
73558;BME280;61829;53.286;10.434;2023-04-15T00:09:40;100668.69;;;7.10;100.00
73558;BME280;61829;53.286;10.434;2023-04-15T00:12:06;100658.66;;;7.04;100.00
73558;BME280;61829;53.286;10.434;2023-04-15T00:14:33;100656.97;;;7.03;100.00
73558;BME280;61829;53.286;10.434;2023-04-15T00:17:01;100656.97;;;7.03;100.00
73558;BME280;61829;53.286;10.434;2023-04-15T00:19:28;100654.44;;;7.01;100.00
73558;BME280;61829;53.286;10.434;2023-04-15T00:21:54;100660.47;;;6.95;100.00
73558;BME280;61829;53.286;10.434;2023-04-15T00:24:20;100664.00;;;6.95;100.00
73558;BME280;61829;53.286;10.434;2023-04-15T00:26:45;100669.53;;;6.94;100.00
73558;BME280;61829;53.286;10.434;2023-04-15T00:29:12;100664.16;;;6.94;100.00
73558;BME280;61829;53.286;10.434;2023-04-15T00:31:37;100671.19;;;6.95;100.00
73558;BME280;61829;53.286;10.434;2023-04-15T00:34:03;100665.84;;;6.95;100.00
73558;BME280;61829;53.286;10.434;2023-04-15T00:36:29;100661.31;;;6.95;100.00
73558;BME280;61829;53.286;10.434;2023-04-15T00:38:59;100660.63;;;6.93;100.00
73558;BME280;61829;53.286;10.434;2023-04-15T00:41:25;100661.66;;;6.92;100.00
73558;BME280;61829;53.286;10.434;2023-04-15T00:43:51;100661.50;;;6.94;100.00
73558;BME280;61829;53.286;10.434;2023-04-15T00:46:17;100648.59;;;6.89;100.00
73558;BME280;61829;53.286;10.434;2023-04-15T00:48:46;100652.09;;;6.90;100.00
73558;BME280;61829;53.286;10.434;2023-04-15T00:51:12;100648.72;;;6.88;100.00
73558;BME280;61829;53.286;10.434;2023-04-15T00:53:39;100650.91;;;6.84;100.00
73558;BME280;61829;53.286;10.434;2023-04-15T00:56:05;100650.75;;;6.86;100.00
73558;BME280;61829;53.286;10.434;2023-04-15T00:58:31;100649.94;;;6.85;100.00
73558;BME280;61829;53.286;10.434;2023-04-15T01:00:57;100643.72;;;6.85;100.00
73558;BME280;61829;53.286;10.434;2023-04-15T01:03:23;100640.06;;;6.86;100.00
73558;BME280;61829;53.286;10.434;2023-04-15T01:05:49;100646.06;;;6.88;100.00
73558;BME280;61829;53.286;10.434;2023-04-15T01:08:29;100646.06;;;6.88;100.00
73558;BME280;61829;53.286;10.434;2023-04-15T01:10:56;100648.72;;;6.88;100.00
73558;BME280;61829;53.286;10.434;2023-04-15T01:13:23;100645.41;;;6.86;100.00
73558;BME280;61829;53.286;10.434;2023-04-15T01:15:50;100645.41;;;6.86;100.00
73558;BME280;61829;53.286;10.434;2023-04-15T01:18:17;100638.03;;;6.88;100.00
73558;BME280;61829;53.286;10.434;2023-04-15T01:20:45;100636.34;;;6.87;100.00
73558;BME280;61829;53.286;10.434;2023-04-15T01:23:11;100635.53;;;6.86;100.00
73558;BME280;61829;53.286;10.434;2023-04-15T01:25:37;100626.47;;;6.87;100.00
73558;BME280;61829;53.286;10.434;2023-04-15T01:28:04;100631.19;;;6.85;100.00
73558;BME280;61829;53.286;10.434;2023-04-15T01:30:33;100627.13;;;6.81;100.00
73558;BME280;61829;53.286;10.434;2023-04-15T01:32:59;100629.81;;;6.81;100.00
73558;BME280;61829;53.286;10.434;2023-04-15T01:35:25;100616.63;;;6.80;100.00
73558;BME280;61829;53.286;10.434;2023-04-15T01:37:53;100619.44;;;6.78;100.00
73558;BME280;61829;53.286;10.434;2023-04-15T01:40:19;100617.59;;;6.79;100.00
73558;BME280;61829;53.286;10.434;2023-04-15T01:42:45;100618.44;;;6.79;100.00
73558;BME280;61829;53.286;10.434;2023-04-15T01:45:11;100608.72;;;6.78;100.00
73558;BME280;61829;53.286;10.434;2023-04-15T01:47:38;100611.59;;;6.77;100.00
73558;BME280;61829;53.286;10.434;2023-04-15T01:50:05;100604.22;;;6.79;100.00
73558;BME280;61829;53.286;10.434;2023-04-15T01:52:31;100603.88;;;6.82;100.00
73558;BME280;61829;53.286;10.434;2023-04-15T01:54:57;100611.91;;;6.82;100.00
73558;BME280;61829;53.286;10.434;2023-04-15T01:57:23;100601.38;;;6.80;100.00
73558;BME280;61829;53.286;10.434;2023-04-15T01:59:48;100603.03;;;6.81;100.00
73558;BME280;61829;53.286;10.434;2023-04-15T02:02:14;100602.06;;;6.82;100.00
73558;BME280;61829;53.286;10.434;2023-04-15T02:04:40;100616.44;;;6.81;100.00
73558;BME280;61829;53.286;10.434;2023-04-15T02:07:06;100601.53;;;6.79;100.00
73558;BME280;61829;53.286;10.434;2023-04-15T02:09:32;100604.06;;;6.80;100.00
73558;BME280;61829;53.286;10.434;2023-04-15T02:11:58;100595.00;;;6.81;100.00
73558;BME280;61829;53.286;10.434;2023-04-15T02:14:25;100607.41;;;6.82;100.00
73558;BME280;61829;53.286;10.434;2023-04-15T02:16:51;100602.06;;;6.82;100.00
73558;BME280;61829;53.286;10.434;2023-04-15T02:19:17;100597.53;;;6.83;100.00
73558;BME280;61829;53.286;10.434;2023-04-15T02:21:43;100594.84;;;6.83;100.00
73558;BME280;61829;53.286;10.434;2023-04-15T02:24:11;100593.84;;;6.84;100.00
73558;BME280;61829;53.286;10.434;2023-04-15T02:26:39;100589.31;;;6.84;100.00
73558;BME280;61829;53.286;10.434;2023-04-15T02:29:05;100595.50;;;6.85;100.00
73558;BME280;61829;53.286;10.434;2023-04-15T02:31:31;100596.53;;;6.84;100.00
73558;BME280;61829;53.286;10.434;2023-04-15T02:34:01;100604.72;;;6.82;100.00
73558;BME280;61829;53.286;10.434;2023-04-15T02:36:30;100609.91;;;6.84;100.00
73558;BME280;61829;53.286;10.434;2023-04-15T02:38:55;100606.22;;;6.85;100.00
73558;BME280;61829;53.286;10.434;2023-04-15T02:41:22;100609.56;;;6.87;100.00
73558;BME280;61829;53.286;10.434;2023-04-15T02:43:51;100600.72;;;6.86;100.00
73558;BME280;61829;53.286;10.434;2023-04-15T02:46:17;100606.91;;;6.87;100.00
73558;BME280;61829;53.286;10.434;2023-04-15T02:48:43;100599.69;;;6.87;100.00
73558;BME280;61829;53.286;10.434;2023-04-15T02:51:18;100593.16;;;6.90;100.00
73558;BME280;61829;53.286;10.434;2023-04-15T02:53:45;100592.19;;;6.91;100.00
73558;BME280;61829;53.286;10.434;2023-04-15T02:56:11;100586.16;;;6.89;100.00
73558;BME280;61829;53.286;10.434;2023-04-15T02:58:39;100588.97;;;6.87;100.00
73558;BME280;61829;53.286;10.434;2023-04-15T03:01:05;100583.28;;;6.90;100.00
73558;BME280;61829;53.286;10.434;2023-04-15T03:03:33;100594.00;;;6.90;100.00
73558;BME280;61829;53.286;10.434;2023-04-15T03:05:59;100590.50;;;6.90;100.00
73558;BME280;61829;53.286;10.434;2023-04-15T03:08:25;100591.16;;;6.92;100.00
73558;BME280;61829;53.286;10.434;2023-04-15T03:10:51;100590.16;;;6.93;100.00
73558;BME280;61829;53.286;10.434;2023-04-15T03:13:17;100582.13;;;6.93;100.00
73558;BME280;61829;53.286;10.434;2023-04-15T03:15:47;100588.16;;;6.95;100.00
73558;BME280;61829;53.286;10.434;2023-04-15T03:18:12;100588.31;;;6.93;100.00
73558;BME280;61829;53.286;10.434;2023-04-15T03:20:39;100589.16;;;6.94;100.00
73558;BME280;61829;53.286;10.434;2023-04-15T03:23:08;100588.97;;;6.95;100.00
73558;BME280;61829;53.286;10.434;2023-04-15T03:25:34;100592.50;;;6.96;100.00
73558;BME280;61829;53.286;10.434;2023-04-15T03:28:02;100586.16;;;6.97;100.00
73558;BME280;61829;53.286;10.434;2023-04-15T03:30:28;100590.84;;;6.95;100.00
73558;BME280;61829;53.286;10.434;2023-04-15T03:32:54;100587.47;;;6.93;100.00
73558;BME280;61829;53.286;10.434;2023-04-15T03:35:20;100582.94;;;6.93;100.00
73558;BME280;61829;53.286;10.434;2023-04-15T03:37:45;100581.97;;;6.94;100.00
73558;BME280;61829;53.286;10.434;2023-04-15T03:40:13;100585.31;;;6.96;100.00
73558;BME280;61829;53.286;10.434;2023-04-15T03:42:40;100579.09;;;6.96;100.00
73558;BME280;61829;53.286;10.434;2023-04-15T03:45:06;100583.47;;;6.97;100.00
73558;BME280;61829;53.286;10.434;2023-04-15T03:47:32;100587.81;;;6.98;100.00
73558;BME280;61829;53.286;10.434;2023-04-15T03:49:58;100575.59;;;6.95;100.00
73558;BME280;61829;53.286;10.434;2023-04-15T03:52:24;100578.13;;;6.97;100.00
73558;BME280;61829;53.286;10.434;2023-04-15T03:54:50;100578.28;;;6.95;100.00
73558;BME280;61829;53.286;10.434;2023-04-15T03:57:15;100580.59;;;6.98;100.00
73558;BME280;61829;53.286;10.434;2023-04-15T04:03:26;100582.63;;;6.96;100.00
73558;BME280;61829;53.286;10.434;2023-04-15T04:05:51;100587.13;;;6.96;100.00
73558;BME280;61829;53.286;10.434;2023-04-15T04:08:18;100580.13;;;6.95;100.00
73558;BME280;61829;53.286;10.434;2023-04-15T04:10:44;100591.50;;;6.97;100.00
73558;BME280;61829;53.286;10.434;2023-04-15T04:13:10;100586.16;;;6.97;100.00
73558;BME280;61829;53.286;10.434;2023-04-15T04:15:36;100576.09;;;6.99;100.00
73558;BME280;61829;53.286;10.434;2023-04-15T04:18:02;100582.47;;;6.98;100.00
73558;BME280;61829;53.286;10.434;2023-04-15T04:20:28;100587.81;;;6.98;100.00
73558;BME280;61829;53.286;10.434;2023-04-15T04:22:54;100588.84;;;6.97;100.00
73558;BME280;61829;53.286;10.434;2023-04-15T04:25:19;100588.50;;;7.00;100.00
73558;BME280;61829;53.286;10.434;2023-04-15T04:27:46;100591.84;;;7.02;100.00
73558;BME280;61829;53.286;10.434;2023-04-15T04:30:11;100594.34;;;7.04;100.00
73558;BME280;61829;53.286;10.434;2023-04-15T04:32:37;100591.84;;;7.02;100.00
73558;BME280;61829;53.286;10.434;2023-04-15T04:35:03;100599.03;;;7.02;100.00
73558;BME280;61829;53.286;10.434;2023-04-15T04:37:29;100602.56;;;7.02;100.00
73558;BME280;61829;53.286;10.434;2023-04-15T04:39:55;100603.41;;;7.03;100.00
73558;BME280;61829;53.286;10.434;2023-04-15T04:42:21;100595.19;;;7.04;100.00
73558;BME280;61829;53.286;10.434;2023-04-15T04:44:47;100596.88;;;7.05;100.00
73558;BME280;61829;53.286;10.434;2023-04-15T04:47:13;100600.38;;;7.06;100.00
73558;BME280;61829;53.286;10.434;2023-04-15T04:49:40;100601.22;;;7.06;100.00
73558;BME280;61829;53.286;10.434;2023-04-15T04:52:06;100603.88;;;7.06;100.00
73558;BME280;61829;53.286;10.434;2023-04-15T04:54:32;100600.19;;;7.07;100.00
73558;BME280;61829;53.286;10.434;2023-04-15T04:56:57;100603.75;;;7.08;100.00
73558;BME280;61829;53.286;10.434;2023-04-15T04:59:23;100606.56;;;7.06;100.00
73558;BME280;61829;53.286;10.434;2023-04-15T05:01:49;100607.25;;;7.08;100.00
73558;BME280;61829;53.286;10.434;2023-04-15T05:04:16;100605.41;;;7.09;100.00
73558;BME280;61829;53.286;10.434;2023-04-15T05:06:41;100605.41;;;7.09;100.00
73558;BME280;61829;53.286;10.434;2023-04-15T05:09:07;100600.88;;;7.09;100.00
73558;BME280;61829;53.286;10.434;2023-04-15T05:11:33;100605.22;;;7.10;100.00
73558;BME280;61829;53.286;10.434;2023-04-15T05:13:59;100602.53;;;7.10;100.00
73558;BME280;61829;53.286;10.434;2023-04-15T05:16:26;100600.72;;;7.11;100.00
73558;BME280;61829;53.286;10.434;2023-04-15T05:18:53;100605.22;;;7.10;100.00
73558;BME280;61829;53.286;10.434;2023-04-15T05:21:19;100606.09;;;7.11;100.00
73558;BME280;61829;53.286;10.434;2023-04-15T05:23:45;100608.56;;;7.12;100.00
73558;BME280;61829;53.286;10.434;2023-04-15T05:26:11;100612.94;;;7.13;100.00
73558;BME280;61829;53.286;10.434;2023-04-15T05:28:37;100609.94;;;7.16;100.00
73558;BME280;61829;53.286;10.434;2023-04-15T05:31:03;100602.53;;;7.18;100.00
73558;BME280;61829;53.286;10.434;2023-04-15T05:33:29;100606.91;;;7.19;100.00
73558;BME280;61829;53.286;10.434;2023-04-15T05:35:56;100603.56;;;7.17;100.00
73558;BME280;61829;53.286;10.434;2023-04-15T05:38:22;100606.91;;;7.19;100.00
73558;BME280;61829;53.286;10.434;2023-04-15T05:40:48;100612.91;;;7.22;100.00
73558;BME280;61829;53.286;10.434;2023-04-15T05:43:14;100607.75;;;7.20;100.00
73558;BME280;61829;53.286;10.434;2023-04-15T05:45:40;100610.44;;;7.20;100.00
73558;BME280;61829;53.286;10.434;2023-04-15T05:48:05;100610.91;;;7.24;100.00
73558;BME280;61829;53.286;10.434;2023-04-15T05:50:31;100607.25;;;7.25;100.00
73558;BME280;61829;53.286;10.434;2023-04-15T05:52:57;100610.56;;;7.27;100.00
73558;BME280;61829;53.286;10.434;2023-04-15T05:55:23;100612.91;;;7.30;100.00
73558;BME280;61829;53.286;10.434;2023-04-15T05:57:49;100617.28;;;7.31;100.00
73558;BME280;61829;53.286;10.434;2023-04-15T06:00:15;100607.22;;;7.33;100.00
73558;BME280;61829;53.286;10.434;2023-04-15T06:02:41;100606.38;;;7.32;100.00
73558;BME280;61829;53.286;10.434;2023-04-15T06:05:07;100619.78;;;7.32;100.00
73558;BME280;61829;53.286;10.434;2023-04-15T06:07:35;100633.38;;;7.31;100.00
73558;BME280;61829;53.286;10.434;2023-04-15T06:10:04;100636.06;;;7.31;100.00
73558;BME280;61829;53.286;10.434;2023-04-15T06:12:30;100648.59;;;7.30;100.00
73558;BME280;61829;53.286;10.434;2023-04-15T06:14:56;100635.72;;;7.26;100.00
73558;BME280;61829;53.286;10.434;2023-04-15T06:17:22;100650.78;;;7.27;100.00
73558;BME280;61829;53.286;10.434;2023-04-15T06:19:48;100646.09;;;7.29;100.00
73558;BME280;61829;53.286;10.434;2023-04-15T06:22:15;100648.59;;;7.30;100.00
73558;BME280;61829;53.286;10.434;2023-04-15T06:24:41;100657.50;;;7.31;100.00
73558;BME280;61829;53.286;10.434;2023-04-15T06:27:07;100658.31;;;7.23;100.00
73558;BME280;61829;53.286;10.434;2023-04-15T06:29:32;100649.28;;;7.24;100.00
73558;BME280;61829;53.286;10.434;2023-04-15T06:31:58;100644.09;;;7.23;100.00
73558;BME280;61829;53.286;10.434;2023-04-15T06:34:24;100648.28;;;7.25;100.00
73558;BME280;61829;53.286;10.434;2023-04-15T06:36:50;100648.94;;;7.27;100.00
73558;BME280;61829;53.286;10.434;2023-04-15T06:39:16;100650.44;;;7.30;100.00
73558;BME280;61829;53.286;10.434;2023-04-15T06:41:42;100661.50;;;7.35;100.00
73558;BME280;61829;53.286;10.434;2023-04-15T06:44:23;100660.50;;;7.36;100.00
73558;BME280;61829;53.286;10.434;2023-04-15T06:46:49;100664.88;;;7.37;100.00
73558;BME280;61829;53.286;10.434;2023-04-15T06:49:15;100669.53;;;7.35;100.00
73558;BME280;61829;53.286;10.434;2023-04-15T06:51:41;100664.53;;;7.32;100.00
73558;BME280;61829;53.286;10.434;2023-04-15T06:54:07;100659.50;;;7.29;100.00
73558;BME280;61829;53.286;10.434;2023-04-15T06:56:33;100664.19;;;7.27;100.00
73558;BME280;61829;53.286;10.434;2023-04-15T06:58:59;100671.22;;;7.28;100.00
73558;BME280;61829;53.286;10.434;2023-04-15T07:01:26;100676.25;;;7.31;100.00
73558;BME280;61829;53.286;10.434;2023-04-15T07:03:51;100674.56;;;7.30;100.00
73558;BME280;61829;53.286;10.434;2023-04-15T07:06:17;100677.91;;;7.32;100.00
73558;BME280;61829;53.286;10.434;2023-04-15T07:08:44;100680.25;;;7.35;100.00
73558;BME280;61829;53.286;10.434;2023-04-15T07:11:10;100680.75;;;7.38;100.00
73558;BME280;61829;53.286;10.434;2023-04-15T07:13:35;100682.94;;;7.43;100.00
73558;BME280;61829;53.286;10.434;2023-04-15T07:16:01;100673.06;;;7.43;100.00
73558;BME280;61829;53.286;10.434;2023-04-15T07:18:27;100675.25;;;7.48;100.00
73558;BME280;61829;53.286;10.434;2023-04-15T07:20:53;100681.94;;;7.52;100.00
73558;BME280;61829;53.286;10.434;2023-04-15T07:23:18;100681.59;;;7.55;100.00
73558;BME280;61829;53.286;10.434;2023-04-15T07:25:44;100681.25;;;7.58;100.00
73558;BME280;61829;53.286;10.434;2023-04-15T07:28:10;100687.97;;;7.62;100.00
73558;BME280;61829;53.286;10.434;2023-04-15T07:30:36;100689.00;;;7.61;100.00
73558;BME280;61829;53.286;10.434;2023-04-15T07:33:02;100684.13;;;7.65;100.00
73558;BME280;61829;53.286;10.434;2023-04-15T07:35:28;100697.00;;;7.70;100.00
73558;BME280;61829;53.286;10.434;2023-04-15T07:37:54;100696.50;;;7.74;100.00
73558;BME280;61829;53.286;10.434;2023-04-15T07:40:20;100698.84;;;7.77;100.00
73558;BME280;61829;53.286;10.434;2023-04-15T07:42:47;100701.53;;;7.77;100.00
73558;BME280;61829;53.286;10.434;2023-04-15T07:45:13;100691.13;;;7.74;100.00
73558;BME280;61829;53.286;10.434;2023-04-15T07:47:39;100706.91;;;7.69;100.00
73558;BME280;61829;53.286;10.434;2023-04-15T07:50:08;100706.41;;;7.74;100.00
73558;BME280;61829;53.286;10.434;2023-04-15T07:52:35;100699.50;;;7.79;100.00
73558;BME280;61829;53.286;10.434;2023-04-15T07:55:08;100705.22;;;7.84;100.00
73558;BME280;61829;53.286;10.434;2023-04-15T07:57:35;100705.03;;;7.94;100.00
73558;BME280;61829;53.286;10.434;2023-04-15T08:00:02;100701.16;;;7.97;100.00
73558;BME280;61829;53.286;10.434;2023-04-15T08:02:29;100713.91;;;7.95;100.00
73558;BME280;61829;53.286;10.434;2023-04-15T08:04:56;100708.38;;;7.96;100.00
73558;BME280;61829;53.286;10.434;2023-04-15T08:07:22;100713.06;;;8.02;100.00
73558;BME280;61829;53.286;10.434;2023-04-15T08:09:48;100713.53;;;8.06;100.00
73558;BME280;61829;53.286;10.434;2023-04-15T08:12:14;100712.56;;;8.07;100.00
73558;BME280;61829;53.286;10.434;2023-04-15T08:14:40;100713.88;;;8.11;100.00
73558;BME280;61829;53.286;10.434;2023-04-15T08:17:06;100727.78;;;8.15;100.00
73558;BME280;61829;53.286;10.434;2023-04-15T08:19:32;100725.91;;;8.15;100.00
73558;BME280;61829;53.286;10.434;2023-04-15T08:22:22;100726.13;;;8.14;100.00
73558;BME280;61829;53.286;10.434;2023-04-15T08:24:48;100725.75;;;8.17;100.00
73558;BME280;61829;53.286;10.434;2023-04-15T08:27:14;100724.75;;;8.18;100.00
73558;BME280;61829;53.286;10.434;2023-04-15T08:29:40;100719.22;;;8.19;100.00
73558;BME280;61829;53.286;10.434;2023-04-15T08:32:06;100722.38;;;8.23;100.00
73558;BME280;61829;53.286;10.434;2023-04-15T08:34:32;100731.13;;;8.25;100.00
73558;BME280;61829;53.286;10.434;2023-04-15T08:36:59;100718.19;;;8.28;100.00
73558;BME280;61829;53.286;10.434;2023-04-15T08:39:25;100728.56;;;8.31;100.00
73558;BME280;61829;53.286;10.434;2023-04-15T08:41:59;100724.03;;;8.40;100.00
73558;BME280;61829;53.286;10.434;2023-04-15T08:44:29;100733.09;;;8.47;100.00
73558;BME280;61829;53.286;10.434;2023-04-15T08:47:01;100724.69;;;8.50;100.00
73558;BME280;61829;53.286;10.434;2023-04-15T08:49:28;100737.94;;;8.52;100.00
73558;BME280;61829;53.286;10.434;2023-04-15T08:51:55;100739.63;;;8.53;100.00
73558;BME280;61829;53.286;10.434;2023-04-15T08:54:23;100740.44;;;8.53;100.00
73558;BME280;61829;53.286;10.434;2023-04-15T08:56:49;100744.31;;;8.51;100.00
73558;BME280;61829;53.286;10.434;2023-04-15T08:59:15;100738.59;;;8.54;100.00
73558;BME280;61829;53.286;10.434;2023-04-15T09:01:41;100739.63;;;8.53;100.00
73558;BME280;61829;53.286;10.434;2023-04-15T09:04:07;100733.91;;;8.56;100.00
73558;BME280;61829;53.286;10.434;2023-04-15T09:06:33;100745.44;;;8.65;100.00
73558;BME280;61829;53.286;10.434;2023-04-15T09:08:59;100744.41;;;8.66;100.00
73558;BME280;61829;53.286;10.434;2023-04-15T09:11:25;100749.63;;;8.67;100.00
73558;BME280;61829;53.286;10.434;2023-04-15T09:13:51;100750.13;;;8.71;100.00
73558;BME280;61829;53.286;10.434;2023-04-15T09:16:17;100752.75;;;8.79;100.00
73558;BME280;61829;53.286;10.434;2023-04-15T09:18:43;100741.50;;;8.84;100.00
73558;BME280;61829;53.286;10.434;2023-04-15T09:21:11;100750.72;;;8.89;100.00
73558;BME280;61829;53.286;10.434;2023-04-15T09:23:39;100757.22;;;8.95;100.00
73558;BME280;61829;53.286;10.434;2023-04-15T09:26:05;100759.53;;;9.06;100.00
73558;BME280;61829;53.286;10.434;2023-04-15T09:28:31;100765.34;;;9.18;100.00
73558;BME280;61829;53.286;10.434;2023-04-15T09:30:58;100758.41;;;9.24;99.32
73558;BME280;61829;53.286;10.434;2023-04-15T09:33:25;100762.72;;;9.33;98.68
73558;BME280;61829;53.286;10.434;2023-04-15T09:36:05;100762.19;;;9.37;98.15
73558;BME280;61829;53.286;10.434;2023-04-15T09:38:31;100757.94;;;9.43;97.29
73558;BME280;61829;53.286;10.434;2023-04-15T09:40:58;100767.84;;;9.42;97.41
73558;BME280;61829;53.286;10.434;2023-04-15T09:43:37;100755.38;;;9.50;98.43
73558;BME280;61829;53.286;10.434;2023-04-15T09:46:04;100766.00;;;9.66;98.85
73558;BME280;61829;53.286;10.434;2023-04-15T09:48:30;100774.66;;;9.76;97.34
73558;BME280;61829;53.286;10.434;2023-04-15T09:50:57;100771.59;;;9.79;96.14
73558;BME280;61829;53.286;10.434;2023-04-15T09:53:24;100780.69;;;9.78;95.47
73558;BME280;61829;53.286;10.434;2023-04-15T09:55:51;100785.91;;;9.80;95.37
73558;BME280;61829;53.286;10.434;2023-04-15T09:58:24;100776.16;;;9.79;94.00
73558;BME280;61829;53.286;10.434;2023-04-15T10:00:52;100791.41;;;9.86;94.82
73558;BME280;61829;53.286;10.434;2023-04-15T10:03:25;100779.91;;;9.93;93.90
73558;BME280;61829;53.286;10.434;2023-04-15T10:05:53;100775.41;;;10.08;93.59
73558;BME280;61829;53.286;10.434;2023-04-15T10:08:22;100786.00;;;10.24;94.14
73558;BME280;61829;53.286;10.434;2023-04-15T10:10:50;100785.31;;;10.30;93.14
73558;BME280;61829;53.286;10.434;2023-04-15T10:13:20;100785.84;;;10.41;92.84
73558;BME280;61829;53.286;10.434;2023-04-15T10:15:50;100783.16;;;10.55;92.42
73558;BME280;61829;53.286;10.434;2023-04-15T10:18:18;100791.06;;;10.72;92.72
73558;BME280;61829;53.286;10.434;2023-04-15T10:20:45;100800.16;;;10.86;91.77
73558;BME280;61829;53.286;10.434;2023-04-15T10:23:11;100794.66;;;10.94;90.55
73558;BME280;61829;53.286;10.434;2023-04-15T10:25:37;100800.97;;;11.01;89.57
73558;BME280;61829;53.286;10.434;2023-04-15T10:28:05;100806.00;;;11.04;89.92
73558;BME280;61829;53.286;10.434;2023-04-15T10:30:32;100803.19;;;11.12;89.30
73558;BME280;61829;53.286;10.434;2023-04-15T10:33:00;100800.88;;;11.09;88.59
73558;BME280;61829;53.286;10.434;2023-04-15T10:35:28;100800.97;;;11.16;89.70
73558;BME280;61829;53.286;10.434;2023-04-15T10:37:55;100800.38;;;11.20;89.28
73558;BME280;61829;53.286;10.434;2023-04-15T10:40:30;100796.75;;;11.28;88.51
73558;BME280;61829;53.286;10.434;2023-04-15T10:42:57;100794.09;;;11.35;86.91
73558;BME280;61829;53.286;10.434;2023-04-15T10:45:33;100798.38;;;11.44;86.32
73558;BME280;61829;53.286;10.434;2023-04-15T10:48:05;100793.03;;;11.51;87.62
73558;BME280;61829;53.286;10.434;2023-04-15T10:50:32;100790.97;;;11.74;87.39
73558;BME280;61829;53.286;10.434;2023-04-15T10:53:01;100791.34;;;12.14;86.98
73558;BME280;61829;53.286;10.434;2023-04-15T10:55:32;100790.50;;;12.42;82.99
73558;BME280;61829;53.286;10.434;2023-04-15T10:57:59;100795.03;;;12.63;82.18
73558;BME280;61829;53.286;10.434;2023-04-15T11:00:28;100795.31;;;12.81;82.20
73558;BME280;61829;53.286;10.434;2023-04-15T11:08:09;100792.22;;;13.32;79.96
73558;BME280;61829;53.286;10.434;2023-04-15T11:15:46;100797.28;;;13.75;77.45
73558;BME280;61829;53.286;10.434;2023-04-15T11:20:54;100807.34;;;14.01;75.20
73558;BME280;61829;53.286;10.434;2023-04-15T11:25:55;100808.38;;;14.13;74.89
73558;BME280;61829;53.286;10.434;2023-04-15T11:28:25;100806.06;;;14.30;74.73
73558;BME280;61829;53.286;10.434;2023-04-15T11:30:51;100802.72;;;14.35;73.61
73558;BME280;61829;53.286;10.434;2023-04-15T11:33:18;100810.22;;;14.26;74.17
73558;BME280;61829;53.286;10.434;2023-04-15T11:35:44;100818.19;;;14.21;75.06
73558;BME280;61829;53.286;10.434;2023-04-15T11:38:12;100816.50;;;14.20;74.49
73558;BME280;61829;53.286;10.434;2023-04-15T11:40:44;100812.94;;;14.00;74.72
73558;BME280;61829;53.286;10.434;2023-04-15T11:45:37;100819.41;;;13.85;74.31
73558;BME280;61829;53.286;10.434;2023-04-15T11:48:13;100833.13;;;13.77;75.20
73558;BME280;61829;53.286;10.434;2023-04-15T11:50:39;100824.78;;;13.72;76.48
73558;BME280;61829;53.286;10.434;2023-04-15T11:53:10;100827.28;;;13.60;76.20
73558;BME280;61829;53.286;10.434;2023-04-15T11:55:50;100828.09;;;13.47;75.63
73558;BME280;61829;53.286;10.434;2023-04-15T12:00:48;100826.41;;;13.40;77.71
73558;BME280;61829;53.286;10.434;2023-04-15T12:11:31;100842.06;;;13.58;77.22
73558;BME280;61829;53.286;10.434;2023-04-15T12:16:36;100842.63;;;13.40;76.96
73558;BME280;61829;53.286;10.434;2023-04-15T12:19:09;100845.94;;;13.35;76.85
73558;BME280;61829;53.286;10.434;2023-04-15T12:21:37;100846.81;;;13.42;77.80
73558;BME280;61829;53.286;10.434;2023-04-15T12:24:07;100848.72;;;13.55;77.25
73558;BME280;61829;53.286;10.434;2023-04-15T12:27:04;100860.00;;;13.65;76.64
73558;BME280;61829;53.286;10.434;2023-04-15T12:29:32;100853.78;;;13.85;77.37
73558;BME280;61829;53.286;10.434;2023-04-15T12:32:14;100849.84;;;13.87;75.61
73558;BME280;61829;53.286;10.434;2023-04-15T12:34:54;100857.97;;;13.87;75.51
73558;BME280;61829;53.286;10.434;2023-04-15T12:37:19;100856.50;;;13.85;75.42
73558;BME280;61829;53.286;10.434;2023-04-15T12:39:47;100859.63;;;13.88;74.87
73558;BME280;61829;53.286;10.434;2023-04-15T12:42:14;100865.66;;;13.84;74.39
73558;BME280;61829;53.286;10.434;2023-04-15T12:44:41;100855.81;;;13.63;75.84
73558;BME280;61829;53.286;10.434;2023-04-15T12:47:07;100864.94;;;13.55;76.33
73558;BME280;61829;53.286;10.434;2023-04-15T12:49:34;100866.59;;;13.50;77.06
73558;BME280;61829;53.286;10.434;2023-04-15T12:52:01;100868.06;;;13.45;76.88
73558;BME280;61829;53.286;10.434;2023-04-15T12:54:28;100874.25;;;13.33;77.05
73558;BME280;61829;53.286;10.434;2023-04-15T12:56:54;100880.88;;;13.30;76.30
73558;BME280;61829;53.286;10.434;2023-04-15T12:59:20;100876.34;;;13.31;76.80
73558;BME280;61829;53.286;10.434;2023-04-15T13:01:48;100885.53;;;13.36;76.01
73558;BME280;61829;53.286;10.434;2023-04-15T13:04:15;100875.94;;;13.34;76.49
73558;BME280;61829;53.286;10.434;2023-04-15T13:07:18;100889.66;;;13.32;76.34
73558;BME280;61829;53.286;10.434;2023-04-15T13:09:43;100891.72;;;13.30;76.61
73558;BME280;61829;53.286;10.434;2023-04-15T13:12:09;100894.59;;;13.22;76.76
73558;BME280;61829;53.286;10.434;2023-04-15T13:14:38;100897.66;;;13.19;76.62
73558;BME280;61829;53.286;10.434;2023-04-15T13:17:04;100898.72;;;13.18;76.66